Terminal Aerodrome Forecast
Issued by NWS Twin Cities, MN

Home | Current Version | Previous Version | Text Only | Print | Product List | Glossary Off
Versions: 1 2 3 4 5 6 7 8 9 10 11 12

077
FTUS43 KMPX 011735
TAFSTC
TAF
KSTC 011735Z 0118/0218 03012G17KT P6SM BKN045
     FM012100 03009KT P6SM SCT045
     FM020100 VRB03KT P6SM SKC=

USA.gov is the U.S. government's official web portal to all federal, state and local government web resources and services.